createdAt,value
2022-07-26T00:00:16.705Z,100545.50
2022-07-26T00:02:48.200Z,100548.88
2022-07-26T00:05:21.164Z,100558.16
2022-07-26T00:07:50.801Z,100559.91
2022-07-26T00:10:20.460Z,100551.94
2022-07-26T00:12:50.178Z,100533.13
2022-07-26T00:15:19.873Z,100542.72
2022-07-26T00:17:49.564Z,100564.16
2022-07-26T00:20:21.874Z,100553.66
2022-07-26T00:22:57.422Z,100558.75
2022-07-26T00:25:27.076Z,100554.34
2022-07-26T00:27:56.754Z,100556.81
2022-07-26T00:30:27.363Z,100561.88
2022-07-26T00:32:56.998Z,100557.66
2022-07-26T00:35:29.322Z,100555.97
2022-07-26T00:37:59.077Z,100553.66
2022-07-26T00:40:28.831Z,100558.69
2022-07-26T00:42:58.489Z,100567.19
2022-07-26T00:45:28.389Z,100562.25
2022-07-26T00:47:58.205Z,100567.53
2022-07-26T00:50:30.468Z,100560.84
2022-07-26T00:53:00.332Z,100570.25
2022-07-26T00:55:30.542Z,100564.09
2022-07-26T00:58:01.318Z,100577.03
2022-07-26T01:00:31.545Z,100576.19
2022-07-26T01:03:03.031Z,100563.31
2022-07-26T01:05:35.663Z,100581.44
2022-07-26T01:08:06.109Z,100581.56
2022-07-26T01:10:35.799Z,100572.28
2022-07-26T01:13:05.479Z,100563.69
2022-07-26T01:15:35.189Z,100575.63
2022-07-26T01:18:04.830Z,100580.63
2022-07-26T01:20:37.100Z,100568.53
2022-07-26T01:23:10.447Z,100571.25
2022-07-26T01:25:43.439Z,100574.00
2022-07-26T01:28:20.175Z,100578.44
2022-07-26T01:30:50.722Z,100578.31
2022-07-26T01:33:20.479Z,100575.47
2022-07-26T01:35:50.823Z,100568.94
2022-07-26T01:38:23.105Z,100571.47
2022-07-26T01:40:52.790Z,100575.25
2022-07-26T01:43:22.533Z,100571.03
2022-07-26T01:45:52.338Z,100571.00
2022-07-26T01:48:22.074Z,100579.72
2022-07-26T01:50:51.769Z,100576.50
2022-07-26T01:53:24.092Z,100527.03
2022-07-26T01:55:53.847Z,100529.03
2022-07-26T01:58:24.868Z,100574.78
2022-07-26T02:00:54.787Z,100582.59
2022-07-26T02:03:24.430Z,100581.16
2022-07-26T02:05:54.122Z,100588.91
2022-07-26T02:08:26.385Z,100578.59
2022-07-26T02:11:05.082Z,100588.97
2022-07-26T02:13:36.544Z,100588.22
2022-07-26T02:16:07.824Z,100578.50
2022-07-26T02:18:40.548Z,100590.28
2022-07-26T02:21:10.934Z,100586.78
2022-07-26T02:23:43.245Z,100592.72
2022-07-26T02:26:12.956Z,100592.97
2022-07-26T02:28:42.713Z,100595.66
2022-07-26T02:31:15.322Z,100595.81
2022-07-26T02:33:45.488Z,100597.53
2022-07-26T02:36:15.157Z,100552.56
2022-07-26T02:38:47.477Z,100600.34
2022-07-26T02:41:17.145Z,100601.28
2022-07-26T02:43:46.896Z,100579.00
2022-07-26T02:46:16.667Z,100612.44
2022-07-26T02:48:46.466Z,100586.84
2022-07-26T02:51:17.443Z,100591.81
2022-07-26T02:53:49.707Z,100602.44
2022-07-26T02:56:19.441Z,100603.47
2022-07-26T02:58:49.140Z,100600.84
2022-07-26T03:01:18.847Z,100612.06
2022-07-26T03:03:50.890Z,100605.19
2022-07-26T03:06:21.697Z,100594.78
2022-07-26T03:08:53.924Z,100617.00
2022-07-26T03:11:23.593Z,100606.91
2022-07-26T03:13:53.292Z,100612.09
2022-07-26T03:16:27.475Z,100607.72
2022-07-26T03:18:59.322Z,100610.31
2022-07-26T03:21:29.101Z,100563.56
2022-07-26T03:24:01.398Z,100614.94
2022-07-26T03:26:31.648Z,100615.06
2022-07-26T03:29:01.334Z,100616.78
2022-07-26T03:31:31.138Z,100618.41
2022-07-26T03:34:03.235Z,100619.47
2022-07-26T03:36:33.220Z,100608.34
2022-07-26T03:39:05.962Z,100620.22
2022-07-26T03:41:35.615Z,100609.47
2022-07-26T03:44:05.833Z,100622.19
2022-07-26T03:46:35.843Z,100619.59
2022-07-26T03:49:05.758Z,100621.94
2022-07-26T03:51:36.023Z,100623.81
2022-07-26T03:54:09.170Z,100622.34
2022-07-26T03:56:36.794Z,100624.97
2022-07-26T03:59:08.302Z,100629.16
2022-07-26T04:01:41.849Z,100612.22
2022-07-26T04:04:12.451Z,100625.81
2022-07-26T04:06:43.124Z,100615.88
2022-07-26T04:09:16.174Z,100638.91
2022-07-26T04:11:47.998Z,100633.94
2022-07-26T04:14:17.674Z,100629.50
2022-07-26T04:16:47.499Z,100636.28
2022-07-26T04:19:17.234Z,100591.94
2022-07-26T04:21:46.915Z,100643.19
2022-07-26T04:24:19.152Z,100653.56
2022-07-26T04:26:54.892Z,100642.31
2022-07-26T04:29:24.573Z,100638.50
2022-07-26T04:31:54.293Z,100637.41
2022-07-26T04:34:23.997Z,100624.78
2022-07-26T04:36:53.683Z,100646.28
2022-07-26T04:39:25.977Z,100629.22
2022-07-26T04:41:55.665Z,100616.53
2022-07-26T04:44:25.293Z,100646.28
2022-07-26T04:46:55.049Z,100644.94
2022-07-26T04:49:24.777Z,100584.28
2022-07-26T04:51:59.042Z,100640.66
2022-07-26T04:54:31.710Z,100644.28
2022-07-26T04:57:01.425Z,100636.25
2022-07-26T04:59:32.603Z,100649.00
2022-07-26T05:02:02.715Z,100647.06
2022-07-26T05:04:32.562Z,100635.81
2022-07-26T05:07:02.588Z,100644.25
2022-07-26T05:09:35.842Z,100642.69
2022-07-26T05:12:05.993Z,100643.41
2022-07-26T05:14:37.496Z,100644.34
2022-07-26T05:17:09.034Z,100648.78
2022-07-26T05:19:44.801Z,100646.66
2022-07-26T05:22:17.318Z,100655.69
2022-07-26T05:24:49.869Z,100666.59
2022-07-26T05:27:19.619Z,100649.44
2022-07-26T05:29:52.783Z,100659.63
2022-07-26T05:32:22.588Z,100664.72
2022-07-26T05:34:52.409Z,100658.31
2022-07-26T05:37:22.139Z,100668.03
2022-07-26T05:39:55.473Z,100667.75
2022-07-26T05:42:26.858Z,100665.03
2022-07-26T05:44:56.559Z,100665.13
2022-07-26T05:47:26.421Z,100662.03
2022-07-26T05:49:59.813Z,100613.59
2022-07-26T05:52:29.585Z,100658.47
2022-07-26T05:55:02.083Z,100640.53
2022-07-26T05:57:32.916Z,100653.00
2022-07-26T06:00:03.018Z,100655.75
2022-07-26T06:02:41.954Z,100664.75
2022-07-26T06:05:12.994Z,100674.56
2022-07-26T06:07:42.677Z,100653.44
2022-07-26T06:10:15.782Z,100665.00
2022-07-26T06:12:45.476Z,100672.97
2022-07-26T06:15:17.973Z,100682.53
2022-07-26T06:17:47.668Z,100672.13
2022-07-26T06:20:17.342Z,100662.31
2022-07-26T06:22:47.100Z,100629.59
2022-07-26T06:25:20.585Z,100678.28
2022-07-26T06:27:50.335Z,100647.78
2022-07-26T06:30:20.229Z,100675.34
2022-07-26T06:32:50.973Z,100686.44
2022-07-26T06:35:20.778Z,100676.94
2022-07-26T06:37:50.439Z,100680.53
2022-07-26T06:40:25.004Z,100689.81
2022-07-26T06:42:58.048Z,100685.81
2022-07-26T06:45:31.790Z,100699.66
2022-07-26T06:48:01.666Z,100703.28
2022-07-26T06:50:31.575Z,100702.75
2022-07-26T06:53:01.427Z,100705.13
2022-07-26T06:55:33.763Z,100646.97
2022-07-26T06:58:03.576Z,100703.81
2022-07-26T07:00:34.486Z,100696.59
2022-07-26T07:03:04.261Z,100657.84
2022-07-26T07:05:34.009Z,100682.59
2022-07-26T07:08:04.827Z,100701.34
2022-07-26T07:10:39.574Z,100705.91
2022-07-26T07:13:10.964Z,100690.09
2022-07-26T07:15:40.737Z,100679.28
2022-07-26T07:18:10.565Z,100703.78
2022-07-26T07:20:41.080Z,100688.91
2022-07-26T07:23:10.838Z,100704.66
2022-07-26T07:25:46.400Z,100710.03
2022-07-26T07:28:18.967Z,100705.50
2022-07-26T07:30:50.222Z,100716.50
2022-07-26T07:33:22.840Z,100708.50
2022-07-26T07:35:53.904Z,100712.88
2022-07-26T07:38:23.794Z,100717.88
2022-07-26T07:40:56.902Z,100707.50
2022-07-26T07:43:26.735Z,100710.59
2022-07-26T07:45:57.774Z,100722.19
2022-07-26T07:48:27.599Z,100704.25
2022-07-26T07:50:58.387Z,100723.47
2022-07-26T07:53:28.384Z,100692.44
2022-07-26T07:56:03.544Z,100703.72
2022-07-26T07:58:33.282Z,100706.03
2022-07-26T08:01:02.997Z,100705.66
2022-07-26T08:03:38.274Z,100713.19
2022-07-26T08:06:11.810Z,100717.91
2022-07-26T08:08:41.539Z,100712.53
2022-07-26T08:11:15.308Z,100707.69
2022-07-26T08:13:48.845Z,100728.63
2022-07-26T08:16:18.565Z,100729.31
2022-07-26T08:18:57.663Z,100725.44
2022-07-26T08:21:29.128Z,100722.38
2022-07-26T08:23:59.512Z,100739.38
2022-07-26T08:26:32.947Z,100764.84
2022-07-26T08:29:02.762Z,100754.81
2022-07-26T08:31:33.589Z,100813.69
2022-07-26T08:34:03.391Z,100801.56
2022-07-26T08:36:33.338Z,100793.47
2022-07-26T08:39:03.626Z,100800.50
2022-07-26T08:41:36.580Z,100819.81
2022-07-26T08:44:11.427Z,100828.16
2022-07-26T08:46:44.178Z,100824.38
2022-07-26T08:49:15.353Z,100834.31
2022-07-26T08:51:46.653Z,100834.94
2022-07-26T08:54:18.281Z,100825.06
2022-07-26T08:56:56.187Z,100837.84
2022-07-26T08:59:26.994Z,100841.13
2022-07-26T09:01:59.221Z,100844.50
2022-07-26T09:04:34.049Z,100854.50
2022-07-26T09:07:08.674Z,100857.53
2022-07-26T09:09:41.411Z,100847.78
2022-07-26T09:12:22.411Z,100856.09
2022-07-26T09:14:53.236Z,100857.44
2022-07-26T09:17:25.605Z,100859.91
2022-07-26T09:20:09.575Z,100846.94
2022-07-26T09:22:41.446Z,100856.06
2022-07-26T09:25:24.047Z,100868.78
2022-07-26T09:27:56.862Z,100865.75
2022-07-26T09:30:26.649Z,100871.22
2022-07-26T09:33:02.211Z,100864.56
2022-07-26T09:35:51.205Z,100875.72
2022-07-26T09:38:22.120Z,100868.25
2022-07-26T09:40:55.442Z,100875.16
2022-07-26T09:43:38.764Z,100872.34
2022-07-26T09:46:11.008Z,100885.31
2022-07-26T09:49:08.030Z,100876.66
2022-07-26T09:51:38.841Z,100877.03
2022-07-26T09:54:09.182Z,100876.13
2022-07-26T09:56:47.137Z,100884.78
2022-07-26T09:59:21.687Z,100891.75
2022-07-26T10:01:52.964Z,100879.16
2022-07-26T10:04:23.124Z,100907.38
2022-07-26T10:06:53.549Z,100887.69
2022-07-26T10:09:25.690Z,100881.53
2022-07-26T10:11:59.373Z,100904.00
2022-07-26T10:14:51.320Z,100922.41
2022-07-26T10:17:43.213Z,100912.09
2022-07-26T10:20:44.829Z,100923.44
2022-07-26T10:23:37.624Z,100902.78
2022-07-26T10:26:09.877Z,100917.19
2022-07-26T10:28:43.278Z,100920.19
2022-07-26T10:31:33.431Z,100905.22
2022-07-26T10:34:04.696Z,100952.59
2022-07-26T10:36:39.342Z,100953.28
2022-07-26T10:39:17.219Z,100950.25
2022-07-26T10:41:50.026Z,100958.59
2022-07-26T10:44:22.609Z,100963.69
2022-07-26T10:47:18.612Z,100941.84
2022-07-26T10:50:00.008Z,100963.97
2022-07-26T10:52:32.187Z,100962.25
2022-07-26T10:55:11.873Z,100963.84
2022-07-26T10:57:44.958Z,100948.97
2022-07-26T11:00:24.594Z,100968.56
2022-07-26T11:03:02.866Z,100971.47
2022-07-26T11:05:35.690Z,100970.44
2022-07-26T11:08:11.177Z,100970.78
2022-07-26T11:10:42.875Z,100973.72
2022-07-26T11:13:17.318Z,100908.16
2022-07-26T11:15:51.001Z,100966.91
2022-07-26T11:18:28.169Z,100962.69
2022-07-26T11:21:00.203Z,100973.91
2022-07-26T11:23:35.490Z,100953.84
2022-07-26T11:26:14.867Z,100955.59
2022-07-26T11:28:59.419Z,100962.53
2022-07-26T11:31:51.341Z,100934.94
2022-07-26T11:34:35.649Z,100968.47
2022-07-26T11:37:07.690Z,100940.25
2022-07-26T11:39:38.906Z,100856.63
2022-07-26T11:42:11.831Z,100968.66
2022-07-26T11:44:45.697Z,100978.63
2022-07-26T11:47:20.002Z,100963.06
2022-07-26T11:50:12.580Z,100983.00
2022-07-26T11:52:42.277Z,100982.22
2022-07-26T11:55:13.034Z,100989.84
2022-07-26T11:57:44.851Z,100983.16
2022-07-26T12:00:20.890Z,100992.63
2022-07-26T12:02:55.801Z,100992.47
2022-07-26T12:05:28.890Z,100998.38
2022-07-26T12:08:00.951Z,100995.78
2022-07-26T12:10:30.956Z,100991.47
2022-07-26T12:13:11.508Z,100967.31
2022-07-26T12:15:51.983Z,100989.69
2022-07-26T12:18:26.888Z,101003.16
2022-07-26T12:21:06.720Z,101006.38
2022-07-26T12:23:45.850Z,100999.69
2022-07-26T12:26:26.339Z,100982.13
2022-07-26T12:28:56.848Z,100999.69
2022-07-26T12:31:31.132Z,100998.22
2022-07-26T12:34:02.618Z,100996.00
2022-07-26T12:36:36.473Z,100975.94
2022-07-26T12:39:07.633Z,100973.84
2022-07-26T12:41:39.610Z,100990.16
2022-07-26T12:44:12.706Z,100994.50
2022-07-26T12:46:44.956Z,100998.22
2022-07-26T12:49:16.794Z,100985.06
2022-07-26T12:51:50.080Z,100991.25
2022-07-26T12:54:19.819Z,100981.53
2022-07-26T12:56:49.617Z,100979.84
2022-07-26T12:59:19.913Z,100994.38
2022-07-26T13:01:49.714Z,100993.53
2022-07-26T13:04:19.537Z,100990.69
2022-07-26T13:06:51.842Z,100998.16
2022-07-26T13:09:21.549Z,101003.84
2022-07-26T13:11:52.330Z,101012.06
2022-07-26T13:14:22.130Z,101014.31
2022-07-26T13:16:53.149Z,101003.22
2022-07-26T13:19:23.103Z,101007.41
2022-07-26T13:21:55.462Z,101017.94
2022-07-26T13:24:25.414Z,101019.03
2022-07-26T13:26:57.430Z,101015.41
2022-07-26T13:29:31.155Z,100987.06
2022-07-26T13:32:02.031Z,101033.41
2022-07-26T13:34:35.088Z,101004.19
2022-07-26T13:37:08.408Z,101027.19
2022-07-26T13:39:38.363Z,101039.28
2022-07-26T13:42:10.014Z,101008.25
2022-07-26T13:44:39.691Z,101011.34
2022-07-26T13:47:09.660Z,101029.16
2022-07-26T13:49:39.446Z,101019.59
2022-07-26T13:52:16.623Z,100999.03
2022-07-26T13:54:46.725Z,101034.75
2022-07-26T13:57:16.450Z,100993.97
2022-07-26T13:59:47.202Z,101045.25
2022-07-26T14:02:18.074Z,101008.13
2022-07-26T14:04:48.623Z,101031.16
2022-07-26T14:07:20.952Z,101044.41
2022-07-26T14:09:50.858Z,101035.72
2022-07-26T14:12:20.573Z,101044.31
2022-07-26T14:14:50.278Z,101030.00
2022-07-26T14:17:19.987Z,101059.00
2022-07-26T14:19:50.930Z,101059.50
2022-07-26T14:22:25.644Z,101046.63
2022-07-26T14:24:55.452Z,101034.88
2022-07-26T14:27:26.317Z,101039.50
2022-07-26T14:29:56.112Z,101056.00
2022-07-26T14:32:26.215Z,101044.72
2022-07-26T14:34:57.091Z,101045.31
2022-07-26T14:37:44.016Z,101053.19
2022-07-26T14:40:17.843Z,101062.72
2022-07-26T14:42:49.091Z,101066.78
2022-07-26T14:45:19.496Z,101064.00
2022-07-26T14:47:49.388Z,101060.59
2022-07-26T14:50:22.894Z,101038.34
2022-07-26T14:52:56.367Z,101070.06
2022-07-26T14:55:26.147Z,101067.59
2022-07-26T14:57:55.911Z,101051.13
2022-07-26T15:00:25.645Z,101065.25
2022-07-26T15:02:56.520Z,101061.25
2022-07-26T15:05:27.917Z,101066.38
2022-07-26T15:08:05.520Z,101074.09
2022-07-26T15:10:35.862Z,101060.59
2022-07-26T15:13:09.579Z,101081.56
2022-07-26T15:15:40.395Z,101057.38
2022-07-26T15:18:10.354Z,101080.72
2022-07-26T15:20:41.826Z,101081.72
2022-07-26T15:23:15.339Z,101084.00
2022-07-26T15:25:45.278Z,101082.13
2022-07-26T15:28:15.041Z,101063.81
2022-07-26T15:30:45.204Z,101078.41
2022-07-26T15:33:15.209Z,101078.88
2022-07-26T15:35:45.937Z,101063.41
2022-07-26T15:38:18.337Z,101082.59
2022-07-26T15:40:48.075Z,101084.63
2022-07-26T15:43:23.906Z,101067.97
2022-07-26T15:46:13.611Z,101065.53
2022-07-26T15:48:45.696Z,101070.72
2022-07-26T15:51:17.257Z,101085.00
2022-07-26T15:53:49.605Z,101065.84
2022-07-26T15:56:20.442Z,101083.94
2022-07-26T15:58:51.219Z,101041.81
2022-07-26T16:01:22.039Z,101074.13
2022-07-26T16:03:51.853Z,101026.81
2022-07-26T16:06:23.990Z,101079.59
2022-07-26T16:09:16.076Z,101068.97
2022-07-26T16:11:47.442Z,101061.91
2022-07-26T16:14:17.251Z,101052.84
2022-07-26T16:16:47.561Z,101064.78
2022-07-26T16:19:17.358Z,101064.22
2022-07-26T16:21:48.111Z,101068.88
2022-07-26T16:24:21.538Z,101075.91
2022-07-26T16:26:52.243Z,101052.63
2022-07-26T16:29:21.966Z,101049.06
2022-07-26T16:31:54.645Z,101034.50
2022-07-26T16:34:24.690Z,101040.78
2022-07-26T16:36:54.688Z,101060.59
2022-07-26T16:39:27.009Z,101062.94
2022-07-26T16:41:56.767Z,101044.25
2022-07-26T16:44:26.794Z,101043.59
2022-07-26T16:46:57.406Z,101059.66
2022-07-26T16:49:27.264Z,101058.75
2022-07-26T16:51:59.145Z,101065.72
2022-07-26T16:54:32.958Z,101053.03
2022-07-26T16:57:04.529Z,101057.84
2022-07-26T16:59:35.276Z,101059.44
2022-07-26T17:02:05.278Z,101049.66
2022-07-26T17:04:36.130Z,101062.13
2022-07-26T17:07:24.478Z,101074.22
2022-07-26T17:09:58.294Z,101061.31
2022-07-26T17:12:28.011Z,101046.72
2022-07-26T17:14:58.125Z,101075.03
2022-07-26T17:17:28.949Z,101033.72
2022-07-26T17:19:59.730Z,101061.19
2022-07-26T17:22:29.510Z,101070.63
2022-07-26T17:25:01.876Z,101018.81
2022-07-26T17:27:31.576Z,101060.03
2022-07-26T17:30:06.481Z,101064.34
2022-07-26T17:32:38.142Z,101083.47
2022-07-26T17:35:09.276Z,101075.81
2022-07-26T17:37:40.034Z,101058.75
2022-07-26T17:40:14.350Z,101036.50
2022-07-26T17:42:46.136Z,101078.50
2022-07-26T17:45:15.941Z,100997.97
2022-07-26T17:47:47.000Z,101077.69
2022-07-26T17:50:35.891Z,101065.66
2022-07-26T17:53:06.425Z,101070.03
2022-07-26T17:55:39.778Z,101081.34
2022-07-26T17:58:09.545Z,101067.84
2022-07-26T18:00:39.498Z,101067.00
2022-07-26T18:03:10.291Z,101072.22
2022-07-26T18:05:41.526Z,101100.75
2022-07-26T18:08:11.439Z,101088.91
2022-07-26T18:10:48.955Z,101079.59
2022-07-26T18:13:20.550Z,101074.59
2022-07-26T18:15:50.489Z,101039.41
2022-07-26T18:18:22.096Z,101074.50
2022-07-26T18:20:52.540Z,101082.34
2022-07-26T18:23:23.552Z,101087.47
2022-07-26T18:25:58.058Z,101090.06
2022-07-26T18:28:27.943Z,101087.50
2022-07-26T18:30:58.782Z,101079.81
2022-07-26T18:33:28.545Z,101038.69
2022-07-26T18:36:02.468Z,101041.16
2022-07-26T18:38:33.243Z,101075.47
2022-07-26T18:41:06.107Z,100986.28
2022-07-26T18:43:36.290Z,101069.41
2022-07-26T18:46:06.474Z,101104.59
2022-07-26T18:48:37.546Z,101085.84
2022-07-26T18:51:11.586Z,101109.22
2022-07-26T18:53:42.344Z,101083.69
2022-07-26T18:56:15.887Z,101111.28
2022-07-26T18:58:45.761Z,101113.94
2022-07-26T19:01:16.591Z,101099.38
2022-07-26T19:03:46.560Z,101112.31
2022-07-26T19:06:16.470Z,101097.63
2022-07-26T19:08:46.376Z,101106.25
2022-07-26T19:11:18.733Z,101119.63
2022-07-26T19:13:49.569Z,101123.13
2022-07-26T19:16:20.648Z,101090.69
2022-07-26T19:18:55.341Z,101105.38
2022-07-26T19:21:27.313Z,101116.47
2022-07-26T19:23:57.095Z,101125.16
2022-07-26T19:26:30.580Z,101134.69
2022-07-26T19:29:00.392Z,101127.13
2022-07-26T19:31:30.183Z,101135.91
2022-07-26T19:34:00.193Z,101117.03
2022-07-26T19:36:31.005Z,101121.34
2022-07-26T19:39:01.343Z,101147.16
2022-07-26T19:41:34.675Z,101121.47
2022-07-26T19:44:05.532Z,101114.66
2022-07-26T19:46:37.724Z,101154.16
2022-07-26T19:49:07.553Z,101143.94
2022-07-26T19:51:37.470Z,101162.84
2022-07-26T19:54:07.527Z,101168.78
2022-07-26T19:56:41.885Z,101164.44
2022-07-26T19:59:11.889Z,101136.09
2022-07-26T20:01:42.181Z,101184.25
2022-07-26T20:04:13.259Z,101169.78
2022-07-26T20:06:43.179Z,101172.41
2022-07-26T20:09:13.331Z,101170.72
2022-07-26T20:11:50.941Z,101173.34
2022-07-26T20:14:21.865Z,101179.38
2022-07-26T20:16:56.073Z,101179.47
2022-07-26T20:19:28.327Z,101156.25
2022-07-26T20:21:59.151Z,101145.97
2022-07-26T20:24:29.378Z,101182.03
2022-07-26T20:27:02.747Z,101159.75
2022-07-26T20:29:32.726Z,101176.19
2022-07-26T20:32:03.939Z,101181.31
2022-07-26T20:34:35.202Z,101177.91
2022-07-26T20:37:05.133Z,101188.22
2022-07-26T20:39:36.092Z,101168.47
2022-07-26T20:42:09.313Z,101196.81
2022-07-26T20:44:44.580Z,101194.22
2022-07-26T20:47:14.347Z,101185.56
2022-07-26T20:49:45.167Z,101191.56
2022-07-26T20:52:17.208Z,101206.13
2022-07-26T20:54:49.127Z,101198.44
2022-07-26T20:57:23.662Z,101184.66
2022-07-26T20:59:53.625Z,101196.69
2022-07-26T21:02:23.583Z,101216.44
2022-07-26T21:04:53.845Z,101222.47
2022-07-26T21:07:24.677Z,101204.44
2022-07-26T21:10:15.605Z,101202.75
2022-07-26T21:12:49.425Z,101205.34
2022-07-26T21:15:19.339Z,101217.38
2022-07-26T21:17:49.106Z,101223.44
2022-07-26T21:20:23.186Z,101226.88
2022-07-26T21:22:53.343Z,101218.25
2022-07-26T21:25:24.435Z,101220.91
2022-07-26T21:27:56.939Z,101200.28
2022-07-26T21:30:26.708Z,101210.63
2022-07-26T21:32:56.669Z,101142.72
2022-07-26T21:35:26.597Z,101180.56
2022-07-26T21:37:57.416Z,101210.63
2022-07-26T21:40:28.472Z,101165.09
2022-07-26T21:43:01.959Z,101172.84
2022-07-26T21:45:32.844Z,101182.31
2022-07-26T21:48:02.622Z,101208.97
2022-07-26T21:50:32.877Z,101240.81
2022-07-26T21:53:03.302Z,101243.38
2022-07-26T21:55:33.003Z,101242.56
2022-07-26T21:58:05.321Z,101241.69
2022-07-26T22:00:36.715Z,101256.31
2022-07-26T22:03:06.661Z,101255.47
2022-07-26T22:05:42.610Z,101248.63
2022-07-26T22:08:14.242Z,101258.06
2022-07-26T22:10:46.243Z,101265.00
2022-07-26T22:13:19.220Z,101263.28
2022-07-26T22:15:49.852Z,101144.59
2022-07-26T22:18:20.349Z,101267.59
2022-07-26T22:20:51.311Z,101240.91
2022-07-26T22:23:23.074Z,101270.19
2022-07-26T22:25:52.810Z,101245.25
2022-07-26T22:28:25.346Z,101203.06
2022-07-26T22:30:55.169Z,101191.00
2022-07-26T22:33:25.457Z,101197.06
2022-07-26T22:35:55.428Z,101247.81
2022-07-26T22:38:25.277Z,101250.41
2022-07-26T22:40:55.137Z,101255.56
2022-07-26T22:43:27.623Z,101260.75
2022-07-26T22:45:57.430Z,101223.72
2022-07-26T22:48:27.327Z,101201.34
2022-07-26T22:50:57.190Z,101253.00
2022-07-26T22:53:26.866Z,101252.97
2022-07-26T22:55:56.718Z,101213.38
2022-07-26T22:58:29.117Z,101219.38
2022-07-26T23:01:00.558Z,101201.31
2022-07-26T23:03:30.588Z,101265.00
2022-07-26T23:06:02.982Z,101183.25
2022-07-26T23:08:46.961Z,101205.59
2022-07-26T23:11:17.353Z,101212.50
2022-07-26T23:13:49.744Z,101268.44
2022-07-26T23:16:19.510Z,101217.66
2022-07-26T23:18:52.584Z,101216.78
2022-07-26T23:21:22.438Z,101263.28
2022-07-26T23:23:52.806Z,101235.69
2022-07-26T23:26:22.590Z,101256.38
2022-07-26T23:28:54.959Z,101282.19
2022-07-26T23:31:25.018Z,101192.66
2022-07-26T23:33:54.976Z,101210.72
2022-07-26T23:36:26.635Z,101279.59
2022-07-26T23:38:56.687Z,101274.44
2022-07-26T23:41:27.135Z,101164.19
2022-07-26T23:43:59.549Z,101257.19
2022-07-26T23:46:29.493Z,101271.78
2022-07-26T23:49:00.573Z,101277.78
2022-07-26T23:51:30.374Z,101274.34
2022-07-26T23:54:00.339Z,101262.25
2022-07-26T23:56:30.106Z,101275.19
2022-07-26T23:59:02.542Z,101272.59
